<?xml version='1.0' encoding='UTF-8'?><gpx version="1.1" creator="JPX - https://github.com/jenetics/jpx" xmlns="http://www.topografix.com/GPX/1/1"><trk><trkseg><trkpt lat="45.5768867" lon="10.75415"><ele>210.0</ele><time>2026-03-28T13:22:51.205Z</time></trkpt><trkpt lat="45.5769517" lon="10.75416"><ele>210.0</ele><time>2026-03-28T13:22:55.206Z</time></trkpt><trkpt lat="45.5770433" lon="10.754235"><ele>210.0</ele><time>2026-03-28T13:23:27.206Z</time></trkpt><trkpt lat="45.577075" lon="10.754365"><ele>210.0</ele><time>2026-03-28T13:23:29.206Z</time></trkpt><trkpt lat="45.5770933" lon="10.7544667"><ele>210.0</ele><time>2026-03-28T13:23:30.205Z</time></trkpt><trkpt lat="45.5771" lon="10.7545867"><ele>210.0</ele><time>2026-03-28T13:23:31.206Z</time></trkpt><trkpt lat="45.5771167" lon="10.7547167"><ele>209.4</ele><time>2026-03-28T13:23:32.205Z</time></trkpt><trkpt lat="45.5771367" lon="10.7548633"><ele>208.8</ele><time>2026-03-28T13:23:33.205Z</time></trkpt><trkpt lat="45.5771533" lon="10.7550167"><ele>208.2</ele><time>2026-03-28T13:23:34.206Z</time></trkpt><trkpt lat="45.577175" lon="10.7551633"><ele>207.6</ele><time>2026-03-28T13:23:35.206Z</time></trkpt><trkpt lat="45.5772017" lon="10.7553017"><ele>207.0</ele><time>2026-03-28T13:23:36.206Z</time></trkpt><trkpt lat="45.57722" lon="10.7554367"><ele>206.8</ele><time>2026-03-28T13:23:37.206Z</time></trkpt><trkpt lat="45.5772283" lon="10.755575"><ele>206.6</ele><time>2026-03-28T13:23:38.206Z</time></trkpt><trkpt lat="45.5772383" lon="10.7557217"><ele>206.4</ele><time>2026-03-28T13:23:39.205Z</time></trkpt><trkpt lat="45.5772317" lon="10.7558583"><ele>206.20000000000002</ele><time>2026-03-28T13:23:40.206Z</time></trkpt><trkpt lat="45.5772133" lon="10.75599"><ele>206.0</ele><time>2026-03-28T13:23:41.206Z</time></trkpt><trkpt lat="45.5771883" lon="10.7561267"><ele>206.00000000000003</ele><time>2026-03-28T13:23:42.205Z</time></trkpt><trkpt lat="45.5771583" lon="10.7562617"><ele>206.0</ele><time>2026-03-28T13:23:43.205Z</time></trkpt><trkpt lat="45.5771183" lon="10.7563783"><ele>206.0</ele><time>2026-03-28T13:23:44.205Z</time></trkpt><trkpt lat="45.5770767" lon="10.75647"><ele>206.0</ele><time>2026-03-28T13:23:45.205Z</time></trkpt><trkpt lat="45.5770283" lon="10.756535"><ele>206.00000000000003</ele><time>2026-03-28T13:23:46.205Z</time></trkpt><trkpt lat="45.5769617" lon="10.7566367"><ele>206.0</ele><time>2026-03-28T13:23:48.205Z</time></trkpt><trkpt lat="45.576955" lon="10.7567267"><ele>206.0</ele><time>2026-03-28T13:24:18.205Z</time></trkpt><trkpt lat="45.5770717" lon="10.7567833"><ele>206.0</ele><time>2026-03-28T13:24:20.205Z</time></trkpt><trkpt lat="45.5771533" lon="10.7567667"><ele>206.0</ele><time>2026-03-28T13:24:21.206Z</time></trkpt><trkpt lat="45.5772567" lon="10.7567233"><ele>206.0</ele><time>2026-03-28T13:24:22.206Z</time></trkpt><trkpt lat="45.5773683" lon="10.756675"><ele>206.0</ele><time>2026-03-28T13:24:23.206Z</time></trkpt><trkpt lat="45.5774817" lon="10.7566317"><ele>206.0</ele><time>2026-03-28T13:24:24.206Z</time></trkpt><trkpt lat="45.5775983" lon="10.7565833"><ele>206.0</ele><time>2026-03-28T13:24:25.206Z</time></trkpt><trkpt lat="45.577725" lon="10.75654"><ele>206.0</ele><time>2026-03-28T13:24:26.205Z</time></trkpt><trkpt lat="45.5778517" lon="10.7564933"><ele>206.0</ele><time>2026-03-28T13:24:27.205Z</time></trkpt><trkpt lat="45.5779933" lon="10.7564433"><ele>205.75</ele><time>2026-03-28T13:24:28.205Z</time></trkpt><trkpt lat="45.5781417" lon="10.756395"><ele>205.5</ele><time>2026-03-28T13:24:29.206Z</time></trkpt><trkpt lat="45.5782867" lon="10.7563517"><ele>205.25</ele><time>2026-03-28T13:24:30.205Z</time></trkpt><trkpt lat="45.578425" lon="10.7562967"><ele>205.0</ele><time>2026-03-28T13:24:31.206Z</time></trkpt><trkpt lat="45.5785733" lon="10.756235"><ele>205.33333333333331</ele><time>2026-03-28T13:24:32.205Z</time></trkpt><trkpt lat="45.57872" lon="10.75617"><ele>205.66666666666669</ele><time>2026-03-28T13:24:33.205Z</time></trkpt><trkpt lat="45.5788667" lon="10.7560917"><ele>206.0</ele><time>2026-03-28T13:24:34.206Z</time></trkpt><trkpt lat="45.5790033" lon="10.7560067"><ele>206.25</ele><time>2026-03-28T13:24:35.205Z</time></trkpt><trkpt lat="45.57913" lon="10.7559083"><ele>206.5</ele><time>2026-03-28T13:24:36.205Z</time></trkpt><trkpt lat="45.5792583" lon="10.7558017"><ele>206.75</ele><time>2026-03-28T13:24:37.205Z</time></trkpt><trkpt lat="45.5793933" lon="10.7557017"><ele>207.0</ele><time>2026-03-28T13:24:38.205Z</time></trkpt><trkpt lat="45.5795217" lon="10.75558"><ele>207.0</ele><time>2026-03-28T13:24:39.205Z</time></trkpt><trkpt lat="45.57965" lon="10.7554633"><ele>207.0</ele><time>2026-03-28T13:24:40.205Z</time></trkpt><trkpt lat="45.579785" lon="10.7553467"><ele>207.0</ele><time>2026-03-28T13:24:41.205Z</time></trkpt><trkpt lat="45.5799217" lon="10.75523"><ele>207.33333333333331</ele><time>2026-03-28T13:24:42.205Z</time></trkpt><trkpt lat="45.5800517" lon="10.7551117"><ele>207.66666666666666</ele><time>2026-03-28T13:24:43.205Z</time></trkpt><trkpt lat="45.5801867" lon="10.7549883"><ele>208.0</ele><time>2026-03-28T13:24:44.206Z</time></trkpt><trkpt lat="45.5803233" lon="10.7548617"><ele>208.33333333333331</ele><time>2026-03-28T13:24:45.205Z</time></trkpt><trkpt lat="45.5804583" lon="10.7547333"><ele>208.66666666666669</ele><time>2026-03-28T13:24:46.205Z</time></trkpt><trkpt lat="45.5805867" lon="10.7546117"><ele>209.0</ele><time>2026-03-28T13:24:47.206Z</time></trkpt><trkpt lat="45.5807267" lon="10.754485"><ele>208.66666666666669</ele><time>2026-03-28T13:24:48.205Z</time></trkpt><trkpt lat="45.58087" lon="10.75435"><ele>208.33333333333331</ele><time>2026-03-28T13:24:49.205Z</time></trkpt><trkpt lat="45.5810083" lon="10.7542117"><ele>208.0</ele><time>2026-03-28T13:24:50.206Z</time></trkpt><trkpt lat="45.581155" lon="10.75408"><ele>208.33333333333331</ele><time>2026-03-28T13:24:51.206Z</time></trkpt><trkpt lat="45.5813" lon="10.75395"><ele>208.66666666666669</ele><time>2026-03-28T13:24:52.206Z</time></trkpt><trkpt lat="45.5814433" lon="10.7538117"><ele>209.0</ele><time>2026-03-28T13:24:53.206Z</time></trkpt><trkpt lat="45.5815833" lon="10.7536817"><ele>209.0</ele><time>2026-03-28T13:24:54.206Z</time></trkpt><trkpt lat="45.5817233" lon="10.75356"><ele>209.0</ele><time>2026-03-28T13:24:55.205Z</time></trkpt><trkpt lat="45.58186" lon="10.753455"><ele>209.0</ele><time>2026-03-28T13:24:56.205Z</time></trkpt><trkpt lat="45.5819833" lon="10.753355"><ele>209.0</ele><time>2026-03-28T13:24:57.205Z</time></trkpt><trkpt lat="45.5819833" lon="10.753355"><ele>209.0</ele><time>2026-03-28T13:24:57.205Z</time></trkpt><trkpt lat="45.5827583" lon="10.75348"><ele>208.5</ele><time>2026-03-28T13:25:08.205Z</time></trkpt><trkpt lat="45.5829933" lon="10.7538883"><ele>208.0</ele><time>2026-03-28T13:25:11.204Z</time></trkpt><trkpt lat="45.5830783" lon="10.75405"><ele>208.0</ele><time>2026-03-28T13:25:12.205Z</time></trkpt><trkpt lat="45.5831667" lon="10.7542283"><ele>208.0</ele><time>2026-03-28T13:25:13.204Z</time></trkpt><trkpt lat="45.583265" lon="10.7544067"><ele>208.0</ele><time>2026-03-28T13:25:14.205Z</time></trkpt><trkpt lat="45.5833533" lon="10.7545633"><ele>208.33333333333331</ele><time>2026-03-28T13:25:15.205Z</time></trkpt><trkpt lat="45.58343" lon="10.75469"><ele>208.66666666666666</ele><time>2026-03-28T13:25:16.204Z</time></trkpt><trkpt lat="45.5834867" lon="10.7548017"><ele>209.0</ele><time>2026-03-28T13:25:17.204Z</time></trkpt><trkpt lat="45.5835383" lon="10.7548933"><ele>209.33333333333331</ele><time>2026-03-28T13:25:18.205Z</time></trkpt><trkpt lat="45.5835867" lon="10.7549733"><ele>209.66666666666666</ele><time>2026-03-28T13:25:19.204Z</time></trkpt><trkpt lat="45.58363" lon="10.7550533"><ele>210.0</ele><time>2026-03-28T13:25:20.204Z</time></trkpt><trkpt lat="45.583675" lon="10.7551533"><ele>210.2</ele><time>2026-03-28T13:25:21.205Z</time></trkpt><trkpt lat="45.5837183" lon="10.7552667"><ele>210.4</ele><time>2026-03-28T13:25:22.205Z</time></trkpt><trkpt lat="45.5837667" lon="10.75539"><ele>210.60000000000002</ele><time>2026-03-28T13:25:23.204Z</time></trkpt><trkpt lat="45.5838167" lon="10.7555267"><ele>210.8</ele><time>2026-03-28T13:25:24.204Z</time></trkpt><trkpt lat="45.583875" lon="10.755665"><ele>211.0</ele><time>2026-03-28T13:25:25.204Z</time></trkpt><trkpt lat="45.583945" lon="10.755805"><ele>211.0</ele><time>2026-03-28T13:25:26.205Z</time></trkpt><trkpt lat="45.5840217" lon="10.7559483"><ele>211.0</ele><time>2026-03-28T13:25:27.204Z</time></trkpt><trkpt lat="45.5841067" lon="10.7560883"><ele>211.0</ele><time>2026-03-28T13:25:28.205Z</time></trkpt><trkpt lat="45.5841933" lon="10.7562333"><ele>211.0</ele><time>2026-03-28T13:25:29.204Z</time></trkpt><trkpt lat="45.5842817" lon="10.7563767"><ele>210.75</ele><time>2026-03-28T13:25:30.204Z</time></trkpt><trkpt lat="45.58437" lon="10.7565133"><ele>210.5</ele><time>2026-03-28T13:25:31.204Z</time></trkpt><trkpt lat="45.584455" lon="10.7566467"><ele>210.25</ele><time>2026-03-28T13:25:32.205Z</time></trkpt><trkpt lat="45.584535" lon="10.7567717"><ele>210.0</ele><time>2026-03-28T13:25:33.204Z</time></trkpt><trkpt lat="45.58461" lon="10.756895"><ele>209.8</ele><time>2026-03-28T13:25:34.205Z</time></trkpt><trkpt lat="45.58468" lon="10.757005"><ele>209.6</ele><time>2026-03-28T13:25:35.204Z</time></trkpt><trkpt lat="45.5847467" lon="10.757105"><ele>209.39999999999998</ele><time>2026-03-28T13:25:36.205Z</time></trkpt><trkpt lat="45.58482" lon="10.7571883"><ele>209.2</ele><time>2026-03-28T13:25:37.204Z</time></trkpt><trkpt lat="45.5848933" lon="10.7572617"><ele>209.0</ele><time>2026-03-28T13:25:38.204Z</time></trkpt><trkpt lat="45.58497" lon="10.7573267"><ele>209.0</ele><time>2026-03-28T13:25:39.205Z</time></trkpt><trkpt lat="45.585055" lon="10.7573917"><ele>209.0</ele><time>2026-03-28T13:25:40.204Z</time></trkpt><trkpt lat="45.585145" lon="10.757445"><ele>209.0</ele><time>2026-03-28T13:25:41.205Z</time></trkpt><trkpt lat="45.5852417" lon="10.7574867"><ele>209.0</ele><time>2026-03-28T13:25:42.204Z</time></trkpt><trkpt lat="45.5853417" lon="10.7575283"><ele>209.0</ele><time>2026-03-28T13:25:43.205Z</time></trkpt><trkpt lat="45.5854317" lon="10.7575867"><ele>209.25</ele><time>2026-03-28T13:25:44.204Z</time></trkpt><trkpt lat="45.58553" lon="10.7576633"><ele>209.5</ele><time>2026-03-28T13:25:45.205Z</time></trkpt><trkpt lat="45.5856283" lon="10.7577517"><ele>209.75</ele><time>2026-03-28T13:25:46.205Z</time></trkpt><trkpt lat="45.5857267" lon="10.7578433"><ele>210.0</ele><time>2026-03-28T13:25:47.204Z</time></trkpt><trkpt lat="45.58582" lon="10.7579217"><ele>210.0</ele><time>2026-03-28T13:25:48.205Z</time></trkpt><trkpt lat="45.585915" lon="10.7579667"><ele>210.0</ele><time>2026-03-28T13:25:49.204Z</time></trkpt><trkpt lat="45.5860167" lon="10.758"><ele>210.0</ele><time>2026-03-28T13:25:50.204Z</time></trkpt><trkpt lat="45.5861233" lon="10.7580283"><ele>210.0</ele><time>2026-03-28T13:25:51.205Z</time></trkpt><trkpt lat="45.5862467" lon="10.75806"><ele>210.0</ele><time>2026-03-28T13:25:52.205Z</time></trkpt><trkpt lat="45.5863683" lon="10.758085"><ele>210.0</ele><time>2026-03-28T13:25:53.205Z</time></trkpt><trkpt lat="45.5864967" lon="10.7581133"><ele>210.0</ele><time>2026-03-28T13:25:54.204Z</time></trkpt><trkpt lat="45.5866117" lon="10.758145"><ele>210.0</ele><time>2026-03-28T13:25:55.204Z</time></trkpt><trkpt lat="45.5867383" lon="10.7581783"><ele>210.0</ele><time>2026-03-28T13:25:56.205Z</time></trkpt><trkpt lat="45.5868683" lon="10.7582133"><ele>210.0</ele><time>2026-03-28T13:25:57.205Z</time></trkpt><trkpt lat="45.587005" lon="10.7582517"><ele>210.0</ele><time>2026-03-28T13:25:58.204Z</time></trkpt><trkpt lat="45.587145" lon="10.7582867"><ele>210.0</ele><time>2026-03-28T13:25:59.205Z</time></trkpt><trkpt lat="45.58727" lon="10.7583183"><ele>210.0</ele><time>2026-03-28T13:26:00.204Z</time></trkpt><trkpt lat="45.5873583" lon="10.7583483"><ele>210.0</ele><time>2026-03-28T13:26:01.204Z</time></trkpt><trkpt lat="45.5874283" lon="10.7583833"><ele>210.0</ele><time>2026-03-28T13:26:02.205Z</time></trkpt><trkpt lat="45.5874817" lon="10.758435"><ele>210.0</ele><time>2026-03-28T13:26:03.204Z</time></trkpt><trkpt lat="45.5875333" lon="10.75849"><ele>210.0</ele><time>2026-03-28T13:26:04.204Z</time></trkpt><trkpt lat="45.5875917" lon="10.7586433"><ele>210.0</ele><time>2026-03-28T13:26:06.205Z</time></trkpt><trkpt lat="45.5876" lon="10.758745"><ele>210.0</ele><time>2026-03-28T13:26:07.204Z</time></trkpt><trkpt lat="45.5875833" lon="10.7588633"><ele>210.0</ele><time>2026-03-28T13:26:08.205Z</time></trkpt><trkpt lat="45.5875683" lon="10.7589967"><ele>210.0</ele><time>2026-03-28T13:26:09.204Z</time></trkpt><trkpt lat="45.58755" lon="10.7591383"><ele>210.0</ele><time>2026-03-28T13:26:10.205Z</time></trkpt><trkpt lat="45.58754" lon="10.7592933"><ele>210.0</ele><time>2026-03-28T13:26:11.204Z</time></trkpt><trkpt lat="45.587535" lon="10.7594583"><ele>210.0</ele><time>2026-03-28T13:26:12.205Z</time></trkpt><trkpt lat="45.587535" lon="10.759625"><ele>210.0</ele><time>2026-03-28T13:26:13.204Z</time></trkpt><trkpt lat="45.587535" lon="10.7597983"><ele>210.0</ele><time>2026-03-28T13:26:14.205Z</time></trkpt><trkpt lat="45.5875383" lon="10.759975"><ele>210.0</ele><time>2026-03-28T13:26:15.205Z</time></trkpt><trkpt lat="45.5875367" lon="10.7601667"><ele>210.0</ele><time>2026-03-28T13:26:16.204Z</time></trkpt><trkpt lat="45.5875317" lon="10.76038"><ele>210.0</ele><time>2026-03-28T13:26:17.204Z</time></trkpt><trkpt lat="45.5875317" lon="10.7606033"><ele>210.0</ele><time>2026-03-28T13:26:18.205Z</time></trkpt><trkpt lat="45.58753" lon="10.7608217"><ele>210.0</ele><time>2026-03-28T13:26:19.204Z</time></trkpt><trkpt lat="45.5875233" lon="10.7610267"><ele>210.25</ele><time>2026-03-28T13:26:20.205Z</time></trkpt><trkpt lat="45.5875167" lon="10.7612233"><ele>210.5</ele><time>2026-03-28T13:26:21.204Z</time></trkpt><trkpt lat="45.5875067" lon="10.761415"><ele>210.75</ele><time>2026-03-28T13:26:22.204Z</time></trkpt><trkpt lat="45.5874917" lon="10.761615"><ele>211.0</ele><time>2026-03-28T13:26:23.204Z</time></trkpt><trkpt lat="45.58746" lon="10.7618183"><ele>211.25</ele><time>2026-03-28T13:26:24.205Z</time></trkpt><trkpt lat="45.5874217" lon="10.7620183"><ele>211.5</ele><time>2026-03-28T13:26:25.204Z</time></trkpt><trkpt lat="45.5873617" lon="10.7622183"><ele>211.75</ele><time>2026-03-28T13:26:26.205Z</time></trkpt><trkpt lat="45.5872833" lon="10.762395"><ele>212.0</ele><time>2026-03-28T13:26:27.204Z</time></trkpt><trkpt lat="45.5872083" lon="10.762565"><ele>212.0</ele><time>2026-03-28T13:26:28.204Z</time></trkpt><trkpt lat="45.58713" lon="10.7627067"><ele>212.0</ele><time>2026-03-28T13:26:29.204Z</time></trkpt><trkpt lat="45.5870617" lon="10.7628167"><ele>212.0</ele><time>2026-03-28T13:26:30.204Z</time></trkpt><trkpt lat="45.5870167" lon="10.7628933"><ele>212.0</ele><time>2026-03-28T13:26:31.205Z</time></trkpt><trkpt lat="45.586975" lon="10.76297"><ele>212.0</ele><time>2026-03-28T13:26:32.205Z</time></trkpt><trkpt lat="45.5869117" lon="10.7630483"><ele>211.75</ele><time>2026-03-28T13:26:33.204Z</time></trkpt><trkpt lat="45.5868267" lon="10.7631483"><ele>211.5</ele><time>2026-03-28T13:26:34.204Z</time></trkpt><trkpt lat="45.5867317" lon="10.7632517"><ele>211.25</ele><time>2026-03-28T13:26:35.204Z</time></trkpt><trkpt lat="45.58663" lon="10.76335"><ele>211.0</ele><time>2026-03-28T13:26:36.204Z</time></trkpt><trkpt lat="45.586515" lon="10.7634683"><ele>211.25</ele><time>2026-03-28T13:26:37.205Z</time></trkpt><trkpt lat="45.5863917" lon="10.7635883"><ele>211.5</ele><time>2026-03-28T13:26:38.204Z</time></trkpt><trkpt lat="45.5862883" lon="10.7637167"><ele>211.75</ele><time>2026-03-28T13:26:39.205Z</time></trkpt><trkpt lat="45.5861783" lon="10.76386"><ele>212.0</ele><time>2026-03-28T13:26:40.205Z</time></trkpt><trkpt lat="45.5860767" lon="10.7640017"><ele>212.0</ele><time>2026-03-28T13:26:41.205Z</time></trkpt><trkpt lat="45.5859833" lon="10.7641517"><ele>212.0</ele><time>2026-03-28T13:26:42.204Z</time></trkpt><trkpt lat="45.5858867" lon="10.7643033"><ele>212.0</ele><time>2026-03-28T13:26:43.204Z</time></trkpt><trkpt lat="45.5857967" lon="10.764475"><ele>212.0</ele><time>2026-03-28T13:26:44.205Z</time></trkpt><trkpt lat="45.585705" lon="10.7646517"><ele>212.33333333333334</ele><time>2026-03-28T13:26:45.204Z</time></trkpt><trkpt lat="45.58562" lon="10.7648333"><ele>212.66666666666669</ele><time>2026-03-28T13:26:46.204Z</time></trkpt><trkpt lat="45.58553" lon="10.7650233"><ele>213.0</ele><time>2026-03-28T13:26:47.205Z</time></trkpt><trkpt lat="45.58544" lon="10.7652017"><ele>213.0</ele><time>2026-03-28T13:26:48.205Z</time></trkpt><trkpt lat="45.5853483" lon="10.765375"><ele>213.0</ele><time>2026-03-28T13:26:49.205Z</time></trkpt><trkpt lat="45.58526" lon="10.765545"><ele>213.0</ele><time>2026-03-28T13:26:50.204Z</time></trkpt><trkpt lat="45.58517" lon="10.76571"><ele>213.0</ele><time>2026-03-28T13:26:51.205Z</time></trkpt><trkpt lat="45.5850817" lon="10.7658767"><ele>213.33333333333331</ele><time>2026-03-28T13:26:52.204Z</time></trkpt><trkpt lat="45.5849883" lon="10.7660483"><ele>213.66666666666666</ele><time>2026-03-28T13:26:53.204Z</time></trkpt><trkpt lat="45.58489" lon="10.766215"><ele>214.0</ele><time>2026-03-28T13:26:54.204Z</time></trkpt><trkpt lat="45.5847967" lon="10.7663783"><ele>214.0</ele><time>2026-03-28T13:26:55.204Z</time></trkpt><trkpt lat="45.5847033" lon="10.76654"><ele>214.0</ele><time>2026-03-28T13:26:56.204Z</time></trkpt><trkpt lat="45.5846133" lon="10.7666867"><ele>214.0</ele><time>2026-03-28T13:26:57.204Z</time></trkpt><trkpt lat="45.5845283" lon="10.76681"><ele>214.0</ele><time>2026-03-28T13:26:58.204Z</time></trkpt><trkpt lat="45.584445" lon="10.7669167"><ele>214.0</ele><time>2026-03-28T13:26:59.204Z</time></trkpt><trkpt lat="45.58436" lon="10.7670083"><ele>213.99999999999997</ele><time>2026-03-28T13:27:00.205Z</time></trkpt><trkpt lat="45.584275" lon="10.767095"><ele>213.99999999999997</ele><time>2026-03-28T13:27:01.204Z</time></trkpt><trkpt lat="45.5841983" lon="10.767195"><ele>214.0</ele><time>2026-03-28T13:27:02.204Z</time></trkpt><trkpt lat="45.584125" lon="10.7673083"><ele>214.0</ele><time>2026-03-28T13:27:03.205Z</time></trkpt><trkpt lat="45.58406" lon="10.7674433"><ele>214.0</ele><time>2026-03-28T13:27:04.205Z</time></trkpt><trkpt lat="45.5840083" lon="10.7676083"><ele>214.0</ele><time>2026-03-28T13:27:05.204Z</time></trkpt><trkpt lat="45.58397" lon="10.76779"><ele>214.0</ele><time>2026-03-28T13:27:06.204Z</time></trkpt><trkpt lat="45.58393" lon="10.7679733"><ele>214.0</ele><time>2026-03-28T13:27:07.205Z</time></trkpt><trkpt lat="45.5838983" lon="10.76816"><ele>213.75</ele><time>2026-03-28T13:27:08.204Z</time></trkpt><trkpt lat="45.5838667" lon="10.7683533"><ele>213.5</ele><time>2026-03-28T13:27:09.205Z</time></trkpt><trkpt lat="45.5838483" lon="10.7685583"><ele>213.25</ele><time>2026-03-28T13:27:10.205Z</time></trkpt><trkpt lat="45.58384" lon="10.768765"><ele>213.0</ele><time>2026-03-28T13:27:11.204Z</time></trkpt><trkpt lat="45.5838317" lon="10.76897"><ele>213.75</ele><time>2026-03-28T13:27:12.204Z</time></trkpt><trkpt lat="45.5838183" lon="10.7691717"><ele>214.5</ele><time>2026-03-28T13:27:13.204Z</time></trkpt><trkpt lat="45.583805" lon="10.769385"><ele>215.25</ele><time>2026-03-28T13:27:14.205Z</time></trkpt><trkpt lat="45.58378" lon="10.7696067"><ele>216.0</ele><time>2026-03-28T13:27:15.205Z</time></trkpt><trkpt lat="45.5837483" lon="10.7698333"><ele>216.66666666666669</ele><time>2026-03-28T13:27:16.205Z</time></trkpt><trkpt lat="45.5837133" lon="10.77006"><ele>217.33333333333334</ele><time>2026-03-28T13:27:17.204Z</time></trkpt><trkpt lat="45.5836783" lon="10.7702833"><ele>218.0</ele><time>2026-03-28T13:27:18.204Z</time></trkpt><trkpt lat="45.5836517" lon="10.77052"><ele>218.0</ele><time>2026-03-28T13:27:19.204Z</time></trkpt><trkpt lat="45.5836383" lon="10.7707467"><ele>218.0</ele><time>2026-03-28T13:27:20.204Z</time></trkpt><trkpt lat="45.583625" lon="10.770975"><ele>218.0</ele><time>2026-03-28T13:27:21.204Z</time></trkpt><trkpt lat="45.5836117" lon="10.7712133"><ele>218.66666666666669</ele><time>2026-03-28T13:27:22.204Z</time></trkpt><trkpt lat="45.583595" lon="10.7714583"><ele>219.33333333333331</ele><time>2026-03-28T13:27:23.204Z</time></trkpt><trkpt lat="45.5835867" lon="10.7716917"><ele>220.0</ele><time>2026-03-28T13:27:24.204Z</time></trkpt><trkpt lat="45.5835733" lon="10.771905"><ele>220.75</ele><time>2026-03-28T13:27:25.205Z</time></trkpt><trkpt lat="45.58355" lon="10.7720933"><ele>221.5</ele><time>2026-03-28T13:27:26.204Z</time></trkpt><trkpt lat="45.583515" lon="10.7722583"><ele>222.25</ele><time>2026-03-28T13:27:27.204Z</time></trkpt><trkpt lat="45.5834767" lon="10.7724217"><ele>223.0</ele><time>2026-03-28T13:27:28.205Z</time></trkpt><trkpt lat="45.58342" lon="10.77258"><ele>224.0</ele><time>2026-03-28T13:27:29.205Z</time></trkpt><trkpt lat="45.5831867" lon="10.7730367"><ele>225.0</ele><time>2026-03-28T13:27:32.204Z</time></trkpt><trkpt lat="45.5829783" lon="10.77332"><ele>227.0</ele><time>2026-03-28T13:27:34.205Z</time></trkpt><trkpt lat="45.5825767" lon="10.7739683"><ele>227.0</ele><time>2026-03-28T13:27:38.204Z</time></trkpt><trkpt lat="45.5825133" lon="10.7741733"><ele>227.0</ele><time>2026-03-28T13:27:39.204Z</time></trkpt><trkpt lat="45.5824717" lon="10.7743967"><ele>227.0</ele><time>2026-03-28T13:27:40.204Z</time></trkpt><trkpt lat="45.5824467" lon="10.7746317"><ele>227.33333333333334</ele><time>2026-03-28T13:27:41.205Z</time></trkpt><trkpt lat="45.5824233" lon="10.7748617"><ele>227.66666666666669</ele><time>2026-03-28T13:27:42.204Z</time></trkpt><trkpt lat="45.5824033" lon="10.7750933"><ele>228.0</ele><time>2026-03-28T13:27:43.205Z</time></trkpt><trkpt lat="45.582385" lon="10.775305"><ele>228.4</ele><time>2026-03-28T13:27:44.205Z</time></trkpt><trkpt lat="45.5823617" lon="10.7754967"><ele>228.8</ele><time>2026-03-28T13:27:45.204Z</time></trkpt><trkpt lat="45.582335" lon="10.7756483"><ele>229.2</ele><time>2026-03-28T13:27:46.204Z</time></trkpt><trkpt lat="45.58232" lon="10.77577"><ele>229.6</ele><time>2026-03-28T13:27:47.204Z</time></trkpt><trkpt lat="45.58232" lon="10.7758733"><ele>230.0</ele><time>2026-03-28T13:27:48.204Z</time></trkpt><trkpt lat="45.5823417" lon="10.77598"><ele>230.0</ele><time>2026-03-28T13:27:49.204Z</time></trkpt><trkpt lat="45.582385" lon="10.7760983"><ele>230.0</ele><time>2026-03-28T13:27:50.204Z</time></trkpt><trkpt lat="45.5824583" lon="10.7762333"><ele>230.0</ele><time>2026-03-28T13:27:51.205Z</time></trkpt><trkpt lat="45.5825617" lon="10.7763967"><ele>230.0</ele><time>2026-03-28T13:27:52.204Z</time></trkpt><trkpt lat="45.5826667" lon="10.77656"><ele>230.0</ele><time>2026-03-28T13:27:53.204Z</time></trkpt><trkpt lat="45.5827667" lon="10.7767317"><ele>230.0</ele><time>2026-03-28T13:27:54.205Z</time></trkpt><trkpt lat="45.5828683" lon="10.7769183"><ele>230.0</ele><time>2026-03-28T13:27:55.205Z</time></trkpt><trkpt lat="45.5829583" lon="10.7771117"><ele>231.33333333333334</ele><time>2026-03-28T13:27:56.205Z</time></trkpt><trkpt lat="45.58305" lon="10.77731"><ele>232.66666666666669</ele><time>2026-03-28T13:27:57.204Z</time></trkpt><trkpt lat="45.5831483" lon="10.7774983"><ele>234.0</ele><time>2026-03-28T13:27:58.204Z</time></trkpt><trkpt lat="45.58324" lon="10.7777017"><ele>234.0</ele><time>2026-03-28T13:27:59.205Z</time></trkpt><trkpt lat="45.5833267" lon="10.777895"><ele>234.0</ele><time>2026-03-28T13:28:00.204Z</time></trkpt><trkpt lat="45.58342" lon="10.7780767"><ele>234.0</ele><time>2026-03-28T13:28:01.204Z</time></trkpt><trkpt lat="45.58352" lon="10.77825"><ele>234.0</ele><time>2026-03-28T13:28:02.204Z</time></trkpt><trkpt lat="45.583635" lon="10.778405"><ele>234.0</ele><time>2026-03-28T13:28:03.204Z</time></trkpt><trkpt lat="45.58376" lon="10.7785583"><ele>234.0</ele><time>2026-03-28T13:28:04.204Z</time></trkpt><trkpt lat="45.5838917" lon="10.778695"><ele>237.0</ele><time>2026-03-28T13:28:05.204Z</time></trkpt><trkpt lat="45.584025" lon="10.7788283"><ele>240.0</ele><time>2026-03-28T13:28:06.204Z</time></trkpt><trkpt lat="45.58417" lon="10.7789533"><ele>243.0</ele><time>2026-03-28T13:28:07.204Z</time></trkpt><trkpt lat="45.5843167" lon="10.7790667"><ele>243.0</ele><time>2026-03-28T13:28:08.204Z</time></trkpt><trkpt lat="45.5844683" lon="10.7791833"><ele>243.0</ele><time>2026-03-28T13:28:09.205Z</time></trkpt><trkpt lat="45.5846333" lon="10.77928"><ele>243.0</ele><time>2026-03-28T13:28:10.204Z</time></trkpt><trkpt lat="45.5848" lon="10.779385"><ele>244.0</ele><time>2026-03-28T13:28:11.204Z</time></trkpt><trkpt lat="45.5849683" lon="10.7794933"><ele>245.0</ele><time>2026-03-28T13:28:12.205Z</time></trkpt><trkpt lat="45.58513" lon="10.7796133"><ele>246.0</ele><time>2026-03-28T13:28:13.204Z</time></trkpt><trkpt lat="45.585295" lon="10.7797283"><ele>246.0</ele><time>2026-03-28T13:28:14.205Z</time></trkpt></trkseg></trk></gpx>